sensor_id;sensor_type;location;lat;lon;timestamp;temperature;humidity
14192;DHT22;7177;48.572;7.838;2022-08-19T00:00:44;20.40;99.90
14192;DHT22;7177;48.572;7.838;2022-08-19T00:03:10;20.40;99.90
14192;DHT22;7177;48.572;7.838;2022-08-19T00:05:35;20.40;99.90
14192;DHT22;7177;48.572;7.838;2022-08-19T00:08:02;20.40;99.90
14192;DHT22;7177;48.572;7.838;2022-08-19T00:10:27;20.30;99.90
14192;DHT22;7177;48.572;7.838;2022-08-19T00:12:53;20.40;99.90
14192;DHT22;7177;48.572;7.838;2022-08-19T00:15:20;20.40;99.90
14192;DHT22;7177;48.572;7.838;2022-08-19T00:17:46;20.30;99.90
14192;DHT22;7177;48.572;7.838;2022-08-19T00:20:16;20.30;99.90
14192;DHT22;7177;48.572;7.838;2022-08-19T00:22:43;20.40;99.90
14192;DHT22;7177;48.572;7.838;2022-08-19T00:25:10;20.40;99.90
14192;DHT22;7177;48.572;7.838;2022-08-19T00:27:35;20.40;99.90
14192;DHT22;7177;48.572;7.838;2022-08-19T00:30:02;20.30;99.90
14192;DHT22;7177;48.572;7.838;2022-08-19T00:32:28;20.30;99.90
14192;DHT22;7177;48.572;7.838;2022-08-19T00:34:54;20.30;99.90
14192;DHT22;7177;48.572;7.838;2022-08-19T00:37:22;20.20;99.90
14192;DHT22;7177;48.572;7.838;2022-08-19T00:39:49;20.20;99.90
14192;DHT22;7177;48.572;7.838;2022-08-19T00:42:14;20.20;99.90
14192;DHT22;7177;48.572;7.838;2022-08-19T00:44:41;20.20;99.90
14192;DHT22;7177;48.572;7.838;2022-08-19T00:47:06;20.20;99.90
14192;DHT22;7177;48.572;7.838;2022-08-19T00:49:39;20.20;99.90
14192;DHT22;7177;48.572;7.838;2022-08-19T00:52:09;20.20;99.90
14192;DHT22;7177;48.572;7.838;2022-08-19T00:54:38;20.10;99.90
14192;DHT22;7177;48.572;7.838;2022-08-19T00:57:07;20.10;99.90
14192;DHT22;7177;48.572;7.838;2022-08-19T00:59:35;20.10;99.90
14192;DHT22;7177;48.572;7.838;2022-08-19T01:02:04;20.00;99.90
14192;DHT22;7177;48.572;7.838;2022-08-19T01:04:30;20.00;99.90
14192;DHT22;7177;48.572;7.838;2022-08-19T01:06:56;19.90;99.90
14192;DHT22;7177;48.572;7.838;2022-08-19T01:09:22;19.90;99.90
14192;DHT22;7177;48.572;7.838;2022-08-19T01:11:47;19.90;99.90
14192;DHT22;7177;48.572;7.838;2022-08-19T01:14:14;19.80;99.90
14192;DHT22;7177;48.572;7.838;2022-08-19T01:16:41;19.80;99.90
14192;DHT22;7177;48.572;7.838;2022-08-19T01:19:18;19.80;99.90
14192;DHT22;7177;48.572;7.838;2022-08-19T01:21:58;19.80;99.90
14192;DHT22;7177;48.572;7.838;2022-08-19T01:24:25;19.80;99.90
14192;DHT22;7177;48.572;7.838;2022-08-19T01:26:51;19.90;99.90
14192;DHT22;7177;48.572;7.838;2022-08-19T01:29:16;19.90;99.90
14192;DHT22;7177;48.572;7.838;2022-08-19T01:31:42;19.90;99.90
14192;DHT22;7177;48.572;7.838;2022-08-19T01:34:07;19.80;99.90
14192;DHT22;7177;48.572;7.838;2022-08-19T01:36:35;19.80;99.90
14192;DHT22;7177;48.572;7.838;2022-08-19T01:39:04;19.80;99.90
14192;DHT22;7177;48.572;7.838;2022-08-19T01:41:30;19.70;99.90
14192;DHT22;7177;48.572;7.838;2022-08-19T01:43:56;19.70;99.90
14192;DHT22;7177;48.572;7.838;2022-08-19T01:46:21;19.70;99.90
14192;DHT22;7177;48.572;7.838;2022-08-19T01:48:47;19.70;99.90
14192;DHT22;7177;48.572;7.838;2022-08-19T01:51:13;19.70;99.90
14192;DHT22;7177;48.572;7.838;2022-08-19T01:53:39;19.70;99.90
14192;DHT22;7177;48.572;7.838;2022-08-19T01:56:06;19.70;99.90
14192;DHT22;7177;48.572;7.838;2022-08-19T01:58:35;19.70;99.90
14192;DHT22;7177;48.572;7.838;2022-08-19T02:01:02;19.70;99.90
14192;DHT22;7177;48.572;7.838;2022-08-19T02:03:28;19.70;99.90
14192;DHT22;7177;48.572;7.838;2022-08-19T02:05:59;19.70;99.90
14192;DHT22;7177;48.572;7.838;2022-08-19T02:08:29;19.70;99.90
14192;DHT22;7177;48.572;7.838;2022-08-19T02:10:56;19.70;99.90
14192;DHT22;7177;48.572;7.838;2022-08-19T02:13:21;19.70;99.90
14192;DHT22;7177;48.572;7.838;2022-08-19T02:15:47;19.70;99.90
14192;DHT22;7177;48.572;7.838;2022-08-19T02:18:13;19.70;99.90
14192;DHT22;7177;48.572;7.838;2022-08-19T02:20:40;19.70;99.90
14192;DHT22;7177;48.572;7.838;2022-08-19T02:23:06;19.70;99.90
14192;DHT22;7177;48.572;7.838;2022-08-19T02:25:32;19.70;99.90
14192;DHT22;7177;48.572;7.838;2022-08-19T02:27:58;19.70;99.90
14192;DHT22;7177;48.572;7.838;2022-08-19T02:30:23;19.70;99.90
14192;DHT22;7177;48.572;7.838;2022-08-19T02:32:50;19.70;99.90
14192;DHT22;7177;48.572;7.838;2022-08-19T02:35:16;19.70;99.90
14192;DHT22;7177;48.572;7.838;2022-08-19T02:37:43;19.70;99.90
14192;DHT22;7177;48.572;7.838;2022-08-19T02:40:28;19.70;99.90
14192;DHT22;7177;48.572;7.838;2022-08-19T02:42:54;19.70;99.90
14192;DHT22;7177;48.572;7.838;2022-08-19T02:45:20;19.70;99.90
14192;DHT22;7177;48.572;7.838;2022-08-19T02:47:45;19.70;99.90
14192;DHT22;7177;48.572;7.838;2022-08-19T02:50:11;19.70;99.90
14192;DHT22;7177;48.572;7.838;2022-08-19T02:52:38;19.70;99.90
14192;DHT22;7177;48.572;7.838;2022-08-19T02:55:04;19.70;99.90
14192;DHT22;7177;48.572;7.838;2022-08-19T02:57:30;19.70;99.90
14192;DHT22;7177;48.572;7.838;2022-08-19T02:59:57;19.70;99.90
14192;DHT22;7177;48.572;7.838;2022-08-19T03:02:22;19.70;99.90
14192;DHT22;7177;48.572;7.838;2022-08-19T03:04:48;19.60;99.90
14192;DHT22;7177;48.572;7.838;2022-08-19T03:07:16;19.70;99.90
14192;DHT22;7177;48.572;7.838;2022-08-19T03:09:41;19.60;99.90
14192;DHT22;7177;48.572;7.838;2022-08-19T03:12:08;19.60;99.90
14192;DHT22;7177;48.572;7.838;2022-08-19T03:14:34;19.60;99.90
14192;DHT22;7177;48.572;7.838;2022-08-19T03:17:00;19.60;99.90
14192;DHT22;7177;48.572;7.838;2022-08-19T03:19:26;19.60;99.90
14192;DHT22;7177;48.572;7.838;2022-08-19T03:21:53;19.70;99.90
14192;DHT22;7177;48.572;7.838;2022-08-19T03:24:19;19.70;99.90
14192;DHT22;7177;48.572;7.838;2022-08-19T03:26:47;19.60;99.90
14192;DHT22;7177;48.572;7.838;2022-08-19T03:29:14;19.60;99.90
14192;DHT22;7177;48.572;7.838;2022-08-19T03:31:41;19.50;99.90
14192;DHT22;7177;48.572;7.838;2022-08-19T03:34:09;19.50;99.90
14192;DHT22;7177;48.572;7.838;2022-08-19T03:36:35;19.50;99.90
14192;DHT22;7177;48.572;7.838;2022-08-19T03:39:01;19.50;99.90
14192;DHT22;7177;48.572;7.838;2022-08-19T03:41:35;19.50;99.90
14192;DHT22;7177;48.572;7.838;2022-08-19T03:44:02;19.50;99.90
14192;DHT22;7177;48.572;7.838;2022-08-19T03:46:30;19.60;99.90
14192;DHT22;7177;48.572;7.838;2022-08-19T03:48:58;19.60;99.90
14192;DHT22;7177;48.572;7.838;2022-08-19T03:51:29;19.60;99.90
14192;DHT22;7177;48.572;7.838;2022-08-19T03:53:57;19.60;99.90
14192;DHT22;7177;48.572;7.838;2022-08-19T03:56:24;19.60;99.90
14192;DHT22;7177;48.572;7.838;2022-08-19T03:58:53;19.50;99.90
14192;DHT22;7177;48.572;7.838;2022-08-19T04:01:22;19.60;99.90
14192;DHT22;7177;48.572;7.838;2022-08-19T04:03:48;19.60;99.90
14192;DHT22;7177;48.572;7.838;2022-08-19T04:06:23;19.60;99.90
14192;DHT22;7177;48.572;7.838;2022-08-19T04:08:51;19.70;99.90
14192;DHT22;7177;48.572;7.838;2022-08-19T04:11:19;19.70;99.90
14192;DHT22;7177;48.572;7.838;2022-08-19T04:13:49;19.70;99.90
14192;DHT22;7177;48.572;7.838;2022-08-19T04:16:17;19.80;99.90
14192;DHT22;7177;48.572;7.838;2022-08-19T04:18:43;19.80;99.90
14192;DHT22;7177;48.572;7.838;2022-08-19T04:21:14;19.70;99.90
14192;DHT22;7177;48.572;7.838;2022-08-19T04:23:41;19.70;99.90
14192;DHT22;7177;48.572;7.838;2022-08-19T04:26:06;19.60;99.90
14192;DHT22;7177;48.572;7.838;2022-08-19T04:28:32;19.60;99.90
14192;DHT22;7177;48.572;7.838;2022-08-19T04:30:57;19.60;99.90
14192;DHT22;7177;48.572;7.838;2022-08-19T04:33:24;19.60;99.90
14192;DHT22;7177;48.572;7.838;2022-08-19T04:35:51;19.60;99.90
14192;DHT22;7177;48.572;7.838;2022-08-19T04:38:20;19.60;99.90
14192;DHT22;7177;48.572;7.838;2022-08-19T04:40:50;19.50;99.90
14192;DHT22;7177;48.572;7.838;2022-08-19T04:43:36;19.50;99.90
14192;DHT22;7177;48.572;7.838;2022-08-19T04:46:10;19.50;99.90
14192;DHT22;7177;48.572;7.838;2022-08-19T04:48:37;19.50;99.90
14192;DHT22;7177;48.572;7.838;2022-08-19T04:51:07;19.50;99.90
14192;DHT22;7177;48.572;7.838;2022-08-19T04:53:35;19.50;99.90
14192;DHT22;7177;48.572;7.838;2022-08-19T04:56:07;19.50;99.90
14192;DHT22;7177;48.572;7.838;2022-08-19T04:58:36;19.50;99.90
14192;DHT22;7177;48.572;7.838;2022-08-19T05:01:02;19.50;99.90
14192;DHT22;7177;48.572;7.838;2022-08-19T05:03:27;19.50;99.90
14192;DHT22;7177;48.572;7.838;2022-08-19T05:05:58;19.60;99.90
14192;DHT22;7177;48.572;7.838;2022-08-19T05:08:24;19.60;99.90
14192;DHT22;7177;48.572;7.838;2022-08-19T05:10:51;19.60;99.90
14192;DHT22;7177;48.572;7.838;2022-08-19T05:13:18;19.60;99.90
14192;DHT22;7177;48.572;7.838;2022-08-19T05:15:54;19.70;99.90
14192;DHT22;7177;48.572;7.838;2022-08-19T05:18:19;19.80;99.90
14192;DHT22;7177;48.572;7.838;2022-08-19T05:21:14;19.80;99.90
14192;DHT22;7177;48.572;7.838;2022-08-19T05:23:59;19.90;99.90
14192;DHT22;7177;48.572;7.838;2022-08-19T05:26:25;19.90;99.90
14192;DHT22;7177;48.572;7.838;2022-08-19T05:28:52;20.00;99.90
14192;DHT22;7177;48.572;7.838;2022-08-19T05:31:17;20.10;99.90
14192;DHT22;7177;48.572;7.838;2022-08-19T05:33:43;20.10;99.90
14192;DHT22;7177;48.572;7.838;2022-08-19T05:36:09;20.10;99.90
14192;DHT22;7177;48.572;7.838;2022-08-19T05:38:35;20.20;99.90
14192;DHT22;7177;48.572;7.838;2022-08-19T05:41:08;20.20;99.90
14192;DHT22;7177;48.572;7.838;2022-08-19T05:43:33;20.30;99.90
14192;DHT22;7177;48.572;7.838;2022-08-19T05:45:59;20.20;99.90
14192;DHT22;7177;48.572;7.838;2022-08-19T05:48:25;20.20;99.90
14192;DHT22;7177;48.572;7.838;2022-08-19T05:50:52;20.30;99.90
14192;DHT22;7177;48.572;7.838;2022-08-19T05:58:09;20.40;99.90
14192;DHT22;7177;48.572;7.838;2022-08-19T06:00:36;20.40;99.90
14192;DHT22;7177;48.572;7.838;2022-08-19T06:03:01;20.40;99.90
14192;DHT22;7177;48.572;7.838;2022-08-19T06:05:29;20.40;99.90
14192;DHT22;7177;48.572;7.838;2022-08-19T06:07:55;20.40;99.90
14192;DHT22;7177;48.572;7.838;2022-08-19T06:10:21;20.50;99.90
14192;DHT22;7177;48.572;7.838;2022-08-19T06:12:47;20.50;99.90
14192;DHT22;7177;48.572;7.838;2022-08-19T06:15:14;20.50;99.90
14192;DHT22;7177;48.572;7.838;2022-08-19T06:17:39;20.50;99.90
14192;DHT22;7177;48.572;7.838;2022-08-19T06:20:09;20.50;99.90
14192;DHT22;7177;48.572;7.838;2022-08-19T06:22:41;20.60;99.90
14192;DHT22;7177;48.572;7.838;2022-08-19T06:25:08;20.70;99.90
14192;DHT22;7177;48.572;7.838;2022-08-19T06:27:35;20.80;99.90
14192;DHT22;7177;48.572;7.838;2022-08-19T06:30:02;20.80;99.90
14192;DHT22;7177;48.572;7.838;2022-08-19T06:32:28;20.80;99.90
14192;DHT22;7177;48.572;7.838;2022-08-19T06:34:54;20.90;99.90
14192;DHT22;7177;48.572;7.838;2022-08-19T06:37:20;20.80;99.90
14192;DHT22;7177;48.572;7.838;2022-08-19T06:39:47;20.90;99.90
14192;DHT22;7177;48.572;7.838;2022-08-19T06:42:13;20.70;99.90
14192;DHT22;7177;48.572;7.838;2022-08-19T06:44:43;20.90;99.90
14192;DHT22;7177;48.572;7.838;2022-08-19T06:47:10;20.90;99.90
14192;DHT22;7177;48.572;7.838;2022-08-19T06:49:36;20.90;99.90
14192;DHT22;7177;48.572;7.838;2022-08-19T06:52:02;20.80;99.90
14192;DHT22;7177;48.572;7.838;2022-08-19T06:54:28;20.80;99.90
14192;DHT22;7177;48.572;7.838;2022-08-19T06:56:58;20.80;99.90
14192;DHT22;7177;48.572;7.838;2022-08-19T06:59:25;20.90;99.90
14192;DHT22;7177;48.572;7.838;2022-08-19T07:01:56;20.90;99.90
14192;DHT22;7177;48.572;7.838;2022-08-19T07:04:25;21.00;99.90
14192;DHT22;7177;48.572;7.838;2022-08-19T07:07:00;21.10;99.90
14192;DHT22;7177;48.572;7.838;2022-08-19T07:09:27;21.20;99.90
14192;DHT22;7177;48.572;7.838;2022-08-19T07:11:53;21.20;99.90
14192;DHT22;7177;48.572;7.838;2022-08-19T07:14:24;21.30;99.90
14192;DHT22;7177;48.572;7.838;2022-08-19T07:16:52;21.30;99.90
14192;DHT22;7177;48.572;7.838;2022-08-19T07:19:20;21.40;99.90
14192;DHT22;7177;48.572;7.838;2022-08-19T07:21:48;21.40;99.90
14192;DHT22;7177;48.572;7.838;2022-08-19T07:24:15;21.40;99.90
14192;DHT22;7177;48.572;7.838;2022-08-19T07:26:43;21.50;99.90
14192;DHT22;7177;48.572;7.838;2022-08-19T07:29:10;21.50;99.90
14192;DHT22;7177;48.572;7.838;2022-08-19T07:31:36;21.70;99.90
14192;DHT22;7177;48.572;7.838;2022-08-19T07:34:05;21.70;99.90
14192;DHT22;7177;48.572;7.838;2022-08-19T07:36:36;21.80;99.90
14192;DHT22;7177;48.572;7.838;2022-08-19T07:39:07;21.90;99.90
14192;DHT22;7177;48.572;7.838;2022-08-19T07:41:34;21.90;99.90
14192;DHT22;7177;48.572;7.838;2022-08-19T07:44:00;22.00;99.90
14192;DHT22;7177;48.572;7.838;2022-08-19T07:46:31;22.20;99.90
14192;DHT22;7177;48.572;7.838;2022-08-19T07:48:56;22.20;99.90
14192;DHT22;7177;48.572;7.838;2022-08-19T07:51:22;22.40;99.90
14192;DHT22;7177;48.572;7.838;2022-08-19T07:53:48;22.40;99.90
14192;DHT22;7177;48.572;7.838;2022-08-19T07:56:16;22.40;99.90
14192;DHT22;7177;48.572;7.838;2022-08-19T07:58:44;22.40;99.90
14192;DHT22;7177;48.572;7.838;2022-08-19T08:01:14;22.50;99.90
14192;DHT22;7177;48.572;7.838;2022-08-19T08:03:41;22.60;99.90
14192;DHT22;7177;48.572;7.838;2022-08-19T08:06:25;22.70;99.90
14192;DHT22;7177;48.572;7.838;2022-08-19T08:09:10;22.80;99.90
14192;DHT22;7177;48.572;7.838;2022-08-19T08:11:52;22.90;99.90
14192;DHT22;7177;48.572;7.838;2022-08-19T08:14:22;22.90;99.90
14192;DHT22;7177;48.572;7.838;2022-08-19T08:16:49;22.90;99.90
14192;DHT22;7177;48.572;7.838;2022-08-19T08:19:15;22.90;99.90
14192;DHT22;7177;48.572;7.838;2022-08-19T08:21:41;22.90;99.90
14192;DHT22;7177;48.572;7.838;2022-08-19T08:24:07;22.90;99.90
14192;DHT22;7177;48.572;7.838;2022-08-19T08:26:33;22.90;99.90
14192;DHT22;7177;48.572;7.838;2022-08-19T08:28:58;23.00;99.90
14192;DHT22;7177;48.572;7.838;2022-08-19T08:31:24;23.00;99.90
14192;DHT22;7177;48.572;7.838;2022-08-19T08:33:49;23.00;99.90
14192;DHT22;7177;48.572;7.838;2022-08-19T08:36:15;23.00;99.90
14192;DHT22;7177;48.572;7.838;2022-08-19T08:38:42;23.00;99.90
14192;DHT22;7177;48.572;7.838;2022-08-19T08:41:22;23.10;99.90
14192;DHT22;7177;48.572;7.838;2022-08-19T08:43:53;23.10;99.90
14192;DHT22;7177;48.572;7.838;2022-08-19T08:52:13;23.10;99.90
14192;DHT22;7177;48.572;7.838;2022-08-19T08:54:43;23.20;99.90
14192;DHT22;7177;48.572;7.838;2022-08-19T08:57:19;23.20;99.90
14192;DHT22;7177;48.572;7.838;2022-08-19T08:59:48;23.20;99.90
14192;DHT22;7177;48.572;7.838;2022-08-19T09:02:20;23.20;99.90
14192;DHT22;7177;48.572;7.838;2022-08-19T09:04:46;23.30;99.90
14192;DHT22;7177;48.572;7.838;2022-08-19T09:10:44;23.40;99.90
14192;DHT22;7177;48.572;7.838;2022-08-19T09:16:11;23.60;99.90
14192;DHT22;7177;48.572;7.838;2022-08-19T09:18:54;23.80;99.90
14192;DHT22;7177;48.572;7.838;2022-08-19T09:21:21;24.00;99.90
14192;DHT22;7177;48.572;7.838;2022-08-19T09:23:51;24.20;99.90
14192;DHT22;7177;48.572;7.838;2022-08-19T09:26:18;24.20;99.90
14192;DHT22;7177;48.572;7.838;2022-08-19T09:28:46;24.10;99.90
14192;DHT22;7177;48.572;7.838;2022-08-19T09:31:16;24.20;99.90
14192;DHT22;7177;48.572;7.838;2022-08-19T09:33:41;24.20;99.90
14192;DHT22;7177;48.572;7.838;2022-08-19T09:36:11;24.30;99.90
14192;DHT22;7177;48.572;7.838;2022-08-19T09:38:39;24.30;99.90
14192;DHT22;7177;48.572;7.838;2022-08-19T09:41:16;24.20;99.90
14192;DHT22;7177;48.572;7.838;2022-08-19T09:43:45;24.20;99.90
14192;DHT22;7177;48.572;7.838;2022-08-19T09:46:11;24.20;99.90
14192;DHT22;7177;48.572;7.838;2022-08-19T09:48:40;24.40;99.90
14192;DHT22;7177;48.572;7.838;2022-08-19T09:51:11;24.40;99.90
14192;DHT22;7177;48.572;7.838;2022-08-19T09:53:42;24.50;99.90
14192;DHT22;7177;48.572;7.838;2022-08-19T09:56:07;24.60;99.90
14192;DHT22;7177;48.572;7.838;2022-08-19T09:58:34;24.80;99.90
14192;DHT22;7177;48.572;7.838;2022-08-19T10:01:01;25.20;99.90
14192;DHT22;7177;48.572;7.838;2022-08-19T10:03:28;25.50;99.90
14192;DHT22;7177;48.572;7.838;2022-08-19T10:05:57;25.70;99.90
14192;DHT22;7177;48.572;7.838;2022-08-19T10:08:29;25.70;99.90
14192;DHT22;7177;48.572;7.838;2022-08-19T10:10:55;25.80;99.90
14192;DHT22;7177;48.572;7.838;2022-08-19T10:13:24;25.70;99.90
14192;DHT22;7177;48.572;7.838;2022-08-19T10:15:56;25.90;99.90
14192;DHT22;7177;48.572;7.838;2022-08-19T10:18:23;26.00;99.90
14192;DHT22;7177;48.572;7.838;2022-08-19T10:20:50;26.10;99.90
14192;DHT22;7177;48.572;7.838;2022-08-19T10:23:16;26.00;99.90
14192;DHT22;7177;48.572;7.838;2022-08-19T10:25:42;25.80;99.90
14192;DHT22;7177;48.572;7.838;2022-08-19T10:28:09;25.80;99.90
14192;DHT22;7177;48.572;7.838;2022-08-19T10:30:38;25.80;99.90
14192;DHT22;7177;48.572;7.838;2022-08-19T10:33:04;26.00;99.90
14192;DHT22;7177;48.572;7.838;2022-08-19T10:35:30;26.10;99.90
14192;DHT22;7177;48.572;7.838;2022-08-19T10:37:56;26.00;99.90
14192;DHT22;7177;48.572;7.838;2022-08-19T10:40:27;26.10;99.90
14192;DHT22;7177;48.572;7.838;2022-08-19T10:42:56;26.10;99.90
14192;DHT22;7177;48.572;7.838;2022-08-19T10:45:22;26.10;99.90
14192;DHT22;7177;48.572;7.838;2022-08-19T10:47:50;26.20;99.90
14192;DHT22;7177;48.572;7.838;2022-08-19T10:50:15;26.30;99.90
14192;DHT22;7177;48.572;7.838;2022-08-19T10:53:04;26.20;99.90
14192;DHT22;7177;48.572;7.838;2022-08-19T10:55:30;26.20;99.90
14192;DHT22;7177;48.572;7.838;2022-08-19T10:58:16;26.20;99.90
14192;DHT22;7177;48.572;7.838;2022-08-19T11:00:43;26.10;99.90
14192;DHT22;7177;48.572;7.838;2022-08-19T11:03:15;26.00;99.90
14192;DHT22;7177;48.572;7.838;2022-08-19T11:05:41;26.10;99.90
14192;DHT22;7177;48.572;7.838;2022-08-19T11:08:08;26.10;99.90
14192;DHT22;7177;48.572;7.838;2022-08-19T11:10:37;26.20;99.90
14192;DHT22;7177;48.572;7.838;2022-08-19T11:13:06;26.20;99.90
14192;DHT22;7177;48.572;7.838;2022-08-19T11:15:32;26.10;99.90
14192;DHT22;7177;48.572;7.838;2022-08-19T11:17:58;26.20;99.90
14192;DHT22;7177;48.572;7.838;2022-08-19T11:20:24;26.10;99.90
14192;DHT22;7177;48.572;7.838;2022-08-19T11:22:51;26.00;99.90
14192;DHT22;7177;48.572;7.838;2022-08-19T11:25:17;26.00;99.90
14192;DHT22;7177;48.572;7.838;2022-08-19T11:27:43;26.00;99.90
14192;DHT22;7177;48.572;7.838;2022-08-19T11:30:10;26.10;99.90
14192;DHT22;7177;48.572;7.838;2022-08-19T11:32:37;26.10;99.90
14192;DHT22;7177;48.572;7.838;2022-08-19T11:35:03;26.10;99.90
14192;DHT22;7177;48.572;7.838;2022-08-19T11:37:29;26.00;99.90
14192;DHT22;7177;48.572;7.838;2022-08-19T11:39:54;26.10;99.90
14192;DHT22;7177;48.572;7.838;2022-08-19T11:42:20;26.10;99.90
14192;DHT22;7177;48.572;7.838;2022-08-19T11:45:04;26.00;99.90
14192;DHT22;7177;48.572;7.838;2022-08-19T11:47:30;26.00;99.90
14192;DHT22;7177;48.572;7.838;2022-08-19T11:49:56;26.10;99.90
14192;DHT22;7177;48.572;7.838;2022-08-19T11:52:21;26.30;99.90
14192;DHT22;7177;48.572;7.838;2022-08-19T11:54:47;26.50;99.90
14192;DHT22;7177;48.572;7.838;2022-08-19T11:57:12;26.70;99.90
14192;DHT22;7177;48.572;7.838;2022-08-19T11:59:40;27.00;99.90
14192;DHT22;7177;48.572;7.838;2022-08-19T12:02:05;27.30;99.90
14192;DHT22;7177;48.572;7.838;2022-08-19T12:04:31;27.50;99.90
14192;DHT22;7177;48.572;7.838;2022-08-19T12:06:56;27.70;99.90
14192;DHT22;7177;48.572;7.838;2022-08-19T12:09:22;28.00;99.90
14192;DHT22;7177;48.572;7.838;2022-08-19T12:11:47;28.60;99.90
14192;DHT22;7177;48.572;7.838;2022-08-19T12:14:13;28.80;99.90
14192;DHT22;7177;48.572;7.838;2022-08-19T12:16:39;29.00;99.90
14192;DHT22;7177;48.572;7.838;2022-08-19T12:19:06;29.00;99.90
14192;DHT22;7177;48.572;7.838;2022-08-19T12:21:34;29.00;99.90
14192;DHT22;7177;48.572;7.838;2022-08-19T12:24:02;29.40;99.90
14192;DHT22;7177;48.572;7.838;2022-08-19T12:26:29;29.90;99.90
14192;DHT22;7177;48.572;7.838;2022-08-19T12:28:56;30.50;98.30
14192;DHT22;7177;48.572;7.838;2022-08-19T12:31:25;30.90;95.70
14192;DHT22;7177;48.572;7.838;2022-08-19T12:33:50;30.90;95.00
14192;DHT22;7177;48.572;7.838;2022-08-19T12:36:17;31.30;95.00
14192;DHT22;7177;48.572;7.838;2022-08-19T12:38:43;31.70;94.10
14192;DHT22;7177;48.572;7.838;2022-08-19T12:41:11;31.80;92.90
14192;DHT22;7177;48.572;7.838;2022-08-19T12:43:38;31.90;92.30
14192;DHT22;7177;48.572;7.838;2022-08-19T12:46:05;31.60;92.00
14192;DHT22;7177;48.572;7.838;2022-08-19T12:48:32;31.30;92.60
14192;DHT22;7177;48.572;7.838;2022-08-19T12:50:58;31.20;93.00
14192;DHT22;7177;48.572;7.838;2022-08-19T12:53:23;31.00;92.60
14192;DHT22;7177;48.572;7.838;2022-08-19T12:55:55;30.50;92.80
14192;DHT22;7177;48.572;7.838;2022-08-19T12:58:22;29.80;93.50
14192;DHT22;7177;48.572;7.838;2022-08-19T13:00:47;29.30;94.80
14192;DHT22;7177;48.572;7.838;2022-08-19T13:03:14;29.20;95.10
14192;DHT22;7177;48.572;7.838;2022-08-19T13:05:40;29.30;94.30
14192;DHT22;7177;48.572;7.838;2022-08-19T13:08:06;29.40;94.60
14192;DHT22;7177;48.572;7.838;2022-08-19T13:10:33;29.40;95.00
14192;DHT22;7177;48.572;7.838;2022-08-19T13:13:01;29.90;94.40
14192;DHT22;7177;48.572;7.838;2022-08-19T13:15:27;30.50;93.20
14192;DHT22;7177;48.572;7.838;2022-08-19T13:17:55;30.90;92.00
14192;DHT22;7177;48.572;7.838;2022-08-19T13:20:22;31.10;90.80
14192;DHT22;7177;48.572;7.838;2022-08-19T13:22:47;30.90;91.10
14192;DHT22;7177;48.572;7.838;2022-08-19T13:25:14;30.30;92.00
14192;DHT22;7177;48.572;7.838;2022-08-19T13:27:42;29.90;93.30
14192;DHT22;7177;48.572;7.838;2022-08-19T13:30:09;29.40;94.10
14192;DHT22;7177;48.572;7.838;2022-08-19T13:32:54;28.80;93.80
14192;DHT22;7177;48.572;7.838;2022-08-19T13:35:46;28.30;94.40
14192;DHT22;7177;48.572;7.838;2022-08-19T13:38:14;27.90;95.30
14192;DHT22;7177;48.572;7.838;2022-08-19T13:40:41;27.80;95.30
14192;DHT22;7177;48.572;7.838;2022-08-19T13:43:06;27.60;95.90
14192;DHT22;7177;48.572;7.838;2022-08-19T13:45:33;27.50;95.50
14192;DHT22;7177;48.572;7.838;2022-08-19T13:48:00;27.40;95.80
14192;DHT22;7177;48.572;7.838;2022-08-19T13:50:32;27.50;95.80
14192;DHT22;7177;48.572;7.838;2022-08-19T13:52:58;27.40;96.20
14192;DHT22;7177;48.572;7.838;2022-08-19T13:55:25;27.40;96.50
14192;DHT22;7177;48.572;7.838;2022-08-19T13:57:53;27.40;96.10
14192;DHT22;7177;48.572;7.838;2022-08-19T14:00:20;27.30;96.70
14192;DHT22;7177;48.572;7.838;2022-08-19T14:02:47;27.30;96.10
14192;DHT22;7177;48.572;7.838;2022-08-19T14:05:15;27.20;95.70
14192;DHT22;7177;48.572;7.838;2022-08-19T14:07:41;27.20;96.10
14192;DHT22;7177;48.572;7.838;2022-08-19T14:10:08;27.20;96.10
14192;DHT22;7177;48.572;7.838;2022-08-19T14:12:34;27.00;96.20
14192;DHT22;7177;48.572;7.838;2022-08-19T14:15:01;27.00;97.00
14192;DHT22;7177;48.572;7.838;2022-08-19T14:17:28;27.00;97.70
14192;DHT22;7177;48.572;7.838;2022-08-19T14:19:58;27.00;97.50
14192;DHT22;7177;48.572;7.838;2022-08-19T14:22:26;27.10;97.40
14192;DHT22;7177;48.572;7.838;2022-08-19T14:24:51;27.10;97.80
14192;DHT22;7177;48.572;7.838;2022-08-19T14:27:17;27.10;97.30
14192;DHT22;7177;48.572;7.838;2022-08-19T14:29:42;27.30;97.30
14192;DHT22;7177;48.572;7.838;2022-08-19T14:32:09;27.50;96.40
14192;DHT22;7177;48.572;7.838;2022-08-19T14:34:34;27.60;96.40
14192;DHT22;7177;48.572;7.838;2022-08-19T14:37:02;27.70;96.30
14192;DHT22;7177;48.572;7.838;2022-08-19T14:39:28;27.80;96.40
14192;DHT22;7177;48.572;7.838;2022-08-19T14:41:53;28.10;95.90
14192;DHT22;7177;48.572;7.838;2022-08-19T14:44:19;28.30;98.30
14192;DHT22;7177;48.572;7.838;2022-08-19T14:46:44;28.50;95.40
14192;DHT22;7177;48.572;7.838;2022-08-19T14:49:10;28.50;95.70
14192;DHT22;7177;48.572;7.838;2022-08-19T14:51:35;28.50;94.90
14192;DHT22;7177;48.572;7.838;2022-08-19T14:54:01;28.40;95.10
14192;DHT22;7177;48.572;7.838;2022-08-19T14:56:29;28.30;94.40
14192;DHT22;7177;48.572;7.838;2022-08-19T14:58:56;28.10;94.40
14192;DHT22;7177;48.572;7.838;2022-08-19T15:01:24;28.10;95.20
14192;DHT22;7177;48.572;7.838;2022-08-19T15:03:50;28.10;95.20
14192;DHT22;7177;48.572;7.838;2022-08-19T15:06:18;28.60;95.00
14192;DHT22;7177;48.572;7.838;2022-08-19T15:08:43;29.20;94.10
14192;DHT22;7177;48.572;7.838;2022-08-19T15:11:15;29.50;92.30
14192;DHT22;7177;48.572;7.838;2022-08-19T15:13:43;29.70;92.00
14192;DHT22;7177;48.572;7.838;2022-08-19T15:16:09;29.90;92.10
14192;DHT22;7177;48.572;7.838;2022-08-19T15:18:35;30.50;91.60
14192;DHT22;7177;48.572;7.838;2022-08-19T15:21:02;30.60;90.60
14192;DHT22;7177;48.572;7.838;2022-08-19T15:23:28;30.60;91.10
14192;DHT22;7177;48.572;7.838;2022-08-19T15:25:54;30.80;90.70
14192;DHT22;7177;48.572;7.838;2022-08-19T15:28:24;30.70;90.60
14192;DHT22;7177;48.572;7.838;2022-08-19T15:30:50;30.50;90.70
14192;DHT22;7177;48.572;7.838;2022-08-19T15:33:17;30.60;90.90
14192;DHT22;7177;48.572;7.838;2022-08-19T15:35:45;30.60;90.70
14192;DHT22;7177;48.572;7.838;2022-08-19T15:38:11;30.50;90.20
14192;DHT22;7177;48.572;7.838;2022-08-19T15:40:39;30.40;90.20
14192;DHT22;7177;48.572;7.838;2022-08-19T15:43:05;30.30;90.50
14192;DHT22;7177;48.572;7.838;2022-08-19T15:45:31;30.40;89.60
14192;DHT22;7177;48.572;7.838;2022-08-19T15:48:01;30.50;88.50
14192;DHT22;7177;48.572;7.838;2022-08-19T15:50:27;30.30;89.70
14192;DHT22;7177;48.572;7.838;2022-08-19T15:53:00;30.20;88.50
14192;DHT22;7177;48.572;7.838;2022-08-19T15:55:32;30.00;89.30
14192;DHT22;7177;48.572;7.838;2022-08-19T15:57:59;30.10;90.00
14192;DHT22;7177;48.572;7.838;2022-08-19T16:00:43;30.30;89.00
14192;DHT22;7177;48.572;7.838;2022-08-19T16:03:35;30.50;88.40
14192;DHT22;7177;48.572;7.838;2022-08-19T16:06:19;30.70;88.40